sensor_id;sensor_type;location;lat;lon;timestamp;pressure;altitude;pressure_sealevel;temperature;humidity
77333;BME280;66408;51.326;12.070;2023-03-21T00:00:40;100872.91;;;9.39;68.09
77333;BME280;66408;51.326;12.070;2023-03-21T00:03:07;100874.00;;;9.38;67.70
77333;BME280;66408;51.326;12.070;2023-03-21T00:05:41;100876.19;;;9.35;67.90
77333;BME280;66408;51.326;12.070;2023-03-21T00:08:08;100879.47;;;9.32;68.09
77333;BME280;66408;51.326;12.070;2023-03-21T00:10:34;100875.13;;;9.31;67.99
77333;BME280;66408;51.326;12.070;2023-03-21T00:13:10;100876.53;;;9.24;68.17
77333;BME280;66408;51.326;12.070;2023-03-21T00:15:39;100881.16;;;9.23;68.07
77333;BME280;66408;51.326;12.070;2023-03-21T00:18:29;100878.75;;;9.17;67.15
77333;BME280;66408;51.326;12.070;2023-03-21T00:21:02;100872.81;;;9.15;67.48
77333;BME280;66408;51.326;12.070;2023-03-21T00:23:49;100881.72;;;9.15;67.36
77333;BME280;66408;51.326;12.070;2023-03-21T00:26:15;100877.66;;;9.18;67.66
77333;BME280;66408;51.326;12.070;2023-03-21T00:28:42;100870.09;;;9.15;67.54
77333;BME280;66408;51.326;12.070;2023-03-21T00:31:09;100877.66;;;9.18;67.01
77333;BME280;66408;51.326;12.070;2023-03-21T00:33:36;100870.38;;;9.13;67.28
77333;BME280;66408;51.326;12.070;2023-03-21T00:36:06;100886.06;;;9.16;67.50
77333;BME280;66408;51.326;12.070;2023-03-21T00:38:34;100876.28;;;9.20;66.98
77333;BME280;66408;51.326;12.070;2023-03-21T00:41:08;100877.69;;;9.13;68.10
77333;BME280;66408;51.326;12.070;2023-03-21T00:43:48;100879.31;;;9.14;68.36
77333;BME280;66408;51.326;12.070;2023-03-21T00:46:17;100877.66;;;9.18;68.38
77333;BME280;66408;51.326;12.070;2023-03-21T00:48:44;100873.59;;;9.15;68.58
77333;BME280;66408;51.326;12.070;2023-03-21T00:51:14;100871.66;;;9.21;68.76
77333;BME280;66408;51.326;12.070;2023-03-21T00:53:46;100871.41;;;9.17;68.80
77333;BME280;66408;51.326;12.070;2023-03-21T00:56:13;100870.09;;;9.15;68.52
77333;BME280;66408;51.326;12.070;2023-03-21T00:58:40;100869.84;;;9.11;69.00
77333;BME280;66408;51.326;12.070;2023-03-21T01:01:06;100866.84;;;9.13;69.10
77333;BME280;66408;51.326;12.070;2023-03-21T01:03:34;100872.56;;;9.11;69.09
77333;BME280;66408;51.326;12.070;2023-03-21T01:06:10;100866.56;;;9.14;69.15
77333;BME280;66408;51.326;12.070;2023-03-21T01:08:40;100863.59;;;9.11;69.34
77333;BME280;66408;51.326;12.070;2023-03-21T01:11:20;100861.16;;;9.09;69.38
77333;BME280;66408;51.326;12.070;2023-03-21T01:13:47;100857.91;;;9.12;69.38
77333;BME280;66408;51.326;12.070;2023-03-21T01:16:27;100861.16;;;9.14;69.41
77333;BME280;66408;51.326;12.070;2023-03-21T01:18:53;100858.44;;;9.09;70.20
77333;BME280;66408;51.326;12.070;2023-03-21T01:21:21;100857.31;;;9.15;69.82
77333;BME280;66408;51.326;12.070;2023-03-21T01:23:48;100861.69;;;9.11;70.05
77333;BME280;66408;51.326;12.070;2023-03-21T01:26:14;100858.16;;;9.11;69.84
77333;BME280;66408;51.326;12.070;2023-03-21T01:28:42;100855.47;;;9.11;70.35
77333;BME280;66408;51.326;12.070;2023-03-21T01:31:11;100861.19;;;9.04;69.84
77333;BME280;66408;51.326;12.070;2023-03-21T01:33:38;100861.16;;;9.09;69.65
77333;BME280;66408;51.326;12.070;2023-03-21T01:36:06;100859.53;;;9.08;69.87
77333;BME280;66408;51.326;12.070;2023-03-21T01:38:41;100863.88;;;9.09;69.89
77333;BME280;66408;51.326;12.070;2023-03-21T01:41:09;100858.44;;;9.09;70.37
77333;BME280;66408;51.326;12.070;2023-03-21T01:43:45;100859.53;;;9.08;69.96
77333;BME280;66408;51.326;12.070;2023-03-21T01:49:41;100850.88;;;9.06;70.15
77333;BME280;66408;51.326;12.070;2023-03-21T01:51:50;100852.75;;;9.06;70.11
77333;BME280;66408;51.326;12.070;2023-03-21T01:54:24;100850.59;;;9.08;70.13
77333;BME280;66408;51.326;12.070;2023-03-21T01:56:55;100848.13;;;9.11;70.08
77333;BME280;66408;51.326;12.070;2023-03-21T01:59:30;100841.09;;;9.05;70.17
77333;BME280;66408;51.326;12.070;2023-03-21T02:02:01;100843.28;;;9.03;70.37
77333;BME280;66408;51.326;12.070;2023-03-21T02:04:34;100843.59;;;9.02;70.43
77333;BME280;66408;51.326;12.070;2023-03-21T02:07:09;100833.28;;;8.98;70.20
77333;BME280;66408;51.326;12.070;2023-03-21T02:09:38;100835.44;;;9.02;70.13
77333;BME280;66408;51.326;12.070;2023-03-21T02:12:07;100831.94;;;9.01;70.47
77333;BME280;66408;51.326;12.070;2023-03-21T02:14:36;100834.09;;;8.99;70.65
77333;BME280;66408;51.326;12.070;2023-03-21T02:23:23;100827.06;;;8.98;70.40
77333;BME280;66408;51.326;12.070;2023-03-21T02:28:31;100817.84;;;8.94;71.00
77333;BME280;66408;51.326;12.070;2023-03-21T02:34:02;100818.09;;;8.97;71.05
77333;BME280;66408;51.326;12.070;2023-03-21T02:45:10;100818.38;;;8.96;71.18
77333;BME280;66408;51.326;12.070;2023-03-21T02:47:51;100819.22;;;8.91;71.17
77333;BME280;66408;51.326;12.070;2023-03-21T02:51:05;100824.34;;;8.93;71.13
77333;BME280;66408;51.326;12.070;2023-03-21T02:53:14;100817.56;;;8.95;70.91
77333;BME280;66408;51.326;12.070;2023-03-21T02:55:42;100817.03;;;8.98;70.64
77333;BME280;66408;51.326;12.070;2023-03-21T02:58:15;100818.94;;;8.93;70.97
77333;BME280;66408;51.326;12.070;2023-03-21T03:00:43;100824.94;;;8.90;71.27
77333;BME280;66408;51.326;12.070;2023-03-21T03:03:11;100828.75;;;8.89;71.33
77333;BME280;66408;51.326;12.070;2023-03-21T03:05:52;100813.84;;;8.86;71.21
77333;BME280;66408;51.326;12.070;2023-03-21T03:11:28;100814.88;;;8.90;71.65
77333;BME280;66408;51.326;12.070;2023-03-21T03:14:11;100811.38;;;8.90;71.39
77333;BME280;66408;51.326;12.070;2023-03-21T03:22:51;100803.19;;;8.95;71.58
77333;BME280;66408;51.326;12.070;2023-03-21T03:25:27;100802.09;;;8.96;71.75
77333;BME280;66408;51.326;12.070;2023-03-21T03:28:09;100802.66;;;8.93;71.73
77333;BME280;66408;51.326;12.070;2023-03-21T03:30:38;100809.72;;;8.94;71.51
77333;BME280;66408;51.326;12.070;2023-03-21T03:33:23;100804.03;;;8.90;72.04
77333;BME280;66408;51.326;12.070;2023-03-21T03:35:53;100811.38;;;8.90;71.66
77333;BME280;66408;51.326;12.070;2023-03-21T03:38:33;100814.09;;;8.90;71.99
77333;BME280;66408;51.326;12.070;2023-03-21T03:41:26;100803.47;;;8.93;72.00
77333;BME280;66408;51.326;12.070;2023-03-21T03:43:55;100810.00;;;8.92;71.43
77333;BME280;66408;51.326;12.070;2023-03-21T03:46:31;100806.78;;;8.85;71.74
77333;BME280;66408;51.326;12.070;2023-03-21T03:49:08;100812.69;;;8.92;71.55
77333;BME280;66408;51.326;12.070;2023-03-21T03:51:49;100806.75;;;8.90;71.46
77333;BME280;66408;51.326;12.070;2023-03-21T03:54:23;100807.56;;;8.91;71.63
77333;BME280;66408;51.326;12.070;2023-03-21T03:56:53;100798.31;;;8.97;71.75
77333;BME280;66408;51.326;12.070;2023-03-21T03:59:19;100803.19;;;9.00;72.03
77333;BME280;66408;51.326;12.070;2023-03-21T04:01:50;100788.00;;;8.99;71.78
77333;BME280;66408;51.326;12.070;2023-03-21T04:04:36;100792.34;;;8.95;72.01
77333;BME280;66408;51.326;12.070;2023-03-21T04:07:03;100786.66;;;8.96;71.57
77333;BME280;66408;51.326;12.070;2023-03-21T04:09:30;100795.63;;;8.92;71.38
77333;BME280;66408;51.326;12.070;2023-03-21T04:12:09;100788.88;;;8.89;71.60
77333;BME280;66408;51.326;12.070;2023-03-21T04:14:35;100794.31;;;8.89;71.55
77333;BME280;66408;51.326;12.070;2023-03-21T04:17:10;100796.16;;;8.94;71.36
77333;BME280;66408;51.326;12.070;2023-03-21T04:19:37;100793.19;;;8.90;71.17
77333;BME280;66408;51.326;12.070;2023-03-21T04:22:03;100803.25;;;8.90;71.55
77333;BME280;66408;51.326;12.070;2023-03-21T04:24:30;100794.31;;;8.89;71.36
77333;BME280;66408;51.326;12.070;2023-03-21T04:26:59;100799.47;;;8.81;71.21
77333;BME280;66408;51.326;12.070;2023-03-21T04:29:26;100787.81;;;8.85;71.17
77333;BME280;66408;51.326;12.070;2023-03-21T04:31:55;100787.75;;;8.95;70.25
77333;BME280;66408;51.326;12.070;2023-03-21T04:34:21;100793.72;;;8.92;70.60
77333;BME280;66408;51.326;12.070;2023-03-21T04:36:49;100789.69;;;8.90;70.97
77333;BME280;66408;51.326;12.070;2023-03-21T04:39:16;100791.28;;;8.91;70.80
77333;BME280;66408;51.326;12.070;2023-03-21T04:41:44;100785.34;;;8.89;70.76
77333;BME280;66408;51.326;12.070;2023-03-21T04:44:13;100785.84;;;8.91;70.54
77333;BME280;66408;51.326;12.070;2023-03-21T04:46:39;100785.06;;;8.90;70.25
77333;BME280;66408;51.326;12.070;2023-03-21T04:49:06;100783.72;;;8.88;70.33
77333;BME280;66408;51.326;12.070;2023-03-21T04:51:33;100785.59;;;8.92;70.56
77333;BME280;66408;51.326;12.070;2023-03-21T04:54:00;100781.50;;;8.95;70.44
77333;BME280;66408;51.326;12.070;2023-03-21T04:56:28;100793.72;;;8.92;70.41
77333;BME280;66408;51.326;12.070;2023-03-21T04:59:02;100793.50;;;8.89;70.66
77333;BME280;66408;51.326;12.070;2023-03-21T05:01:31;100789.44;;;8.86;70.82
77333;BME280;66408;51.326;12.070;2023-03-21T05:04:02;100782.66;;;8.84;70.67
77333;BME280;66408;51.326;12.070;2023-03-21T05:06:30;100793.50;;;8.84;70.75
77333;BME280;66408;51.326;12.070;2023-03-21T05:08:58;100793.19;;;8.90;71.00
77333;BME280;66408;51.326;12.070;2023-03-21T05:11:32;100792.63;;;8.93;70.74
77333;BME280;66408;51.326;12.070;2023-03-21T05:14:01;100785.84;;;8.96;70.50
77333;BME280;66408;51.326;12.070;2023-03-21T05:16:27;100789.38;;;8.91;70.76
77333;BME280;66408;51.326;12.070;2023-03-21T05:18:56;100786.97;;;8.90;70.92
77333;BME280;66408;51.326;12.070;2023-03-21T05:21:24;100791.28;;;8.91;70.85
77333;BME280;66408;51.326;12.070;2023-03-21T05:23:55;100786.47;;;8.83;71.00
77333;BME280;66408;51.326;12.070;2023-03-21T05:26:23;100777.78;;;8.86;71.14
77333;BME280;66408;51.326;12.070;2023-03-21T05:28:50;100779.41;;;8.82;71.40
77333;BME280;66408;51.326;12.070;2023-03-21T05:31:18;100790.53;;;8.80;71.51
77333;BME280;66408;51.326;12.070;2023-03-21T05:33:46;100787.06;;;8.75;71.54
77333;BME280;66408;51.326;12.070;2023-03-21T05:36:14;100783.00;;;8.77;71.38
77333;BME280;66408;51.326;12.070;2023-03-21T05:38:41;100788.16;;;8.74;71.83
77333;BME280;66408;51.326;12.070;2023-03-21T05:41:12;100794.13;;;8.71;72.29
77333;BME280;66408;51.326;12.070;2023-03-21T05:43:38;100780.31;;;8.67;72.12
77333;BME280;66408;51.326;12.070;2023-03-21T05:46:05;100789.25;;;8.73;71.60
77333;BME280;66408;51.326;12.070;2023-03-21T05:48:32;100782.72;;;8.74;71.76
77333;BME280;66408;51.326;12.070;2023-03-21T05:51:00;100788.91;;;8.79;71.79
77333;BME280;66408;51.326;12.070;2023-03-21T05:53:27;100794.13;;;8.76;71.79
77333;BME280;66408;51.326;12.070;2023-03-21T05:55:54;100790.59;;;8.75;71.92
77333;BME280;66408;51.326;12.070;2023-03-21T05:58:20;100784.91;;;8.72;72.17
77333;BME280;66408;51.326;12.070;2023-03-21T06:00:47;100788.97;;;8.69;72.04
77333;BME280;66408;51.326;12.070;2023-03-21T06:03:13;100790.88;;;8.74;72.49
77333;BME280;66408;51.326;12.070;2023-03-21T06:05:40;100791.13;;;8.77;72.37
77333;BME280;66408;51.326;12.070;2023-03-21T06:08:07;100785.69;;;8.77;72.13
77333;BME280;66408;51.326;12.070;2023-03-21T06:10:33;100794.06;;;8.81;72.17
77333;BME280;66408;51.326;12.070;2023-03-21T06:13:00;100788.91;;;8.84;71.77
77333;BME280;66408;51.326;12.070;2023-03-21T06:15:26;100796.41;;;8.97;71.34
77333;BME280;66408;51.326;12.070;2023-03-21T06:17:53;100775.81;;;8.96;71.07
77333;BME280;66408;51.326;12.070;2023-03-21T06:20:20;100783.09;;;9.01;70.73
77333;BME280;66408;51.326;12.070;2023-03-21T06:22:46;100775.47;;;9.03;70.93
77333;BME280;66408;51.326;12.070;2023-03-21T06:25:13;100779.06;;;8.98;70.62
77333;BME280;66408;51.326;12.070;2023-03-21T06:27:39;100783.13;;;8.96;70.67
77333;BME280;66408;51.326;12.070;2023-03-21T06:30:07;100796.41;;;8.97;71.30
77333;BME280;66408;51.326;12.070;2023-03-21T06:32:34;100787.44;;;9.02;70.40
77333;BME280;66408;51.326;12.070;2023-03-21T06:35:00;100792.81;;;9.07;71.02
77333;BME280;66408;51.326;12.070;2023-03-21T06:37:27;100797.34;;;9.17;70.90
77333;BME280;66408;51.326;12.070;2023-03-21T06:39:54;100794.41;;;9.13;70.31
77333;BME280;66408;51.326;12.070;2023-03-21T06:42:21;100792.16;;;9.25;70.86
77333;BME280;66408;51.326;12.070;2023-03-21T06:44:47;100793.25;;;9.24;70.41
77333;BME280;66408;51.326;12.070;2023-03-21T06:47:14;100788.34;;;9.26;69.94
77333;BME280;66408;51.326;12.070;2023-03-21T06:49:41;100792.16;;;9.25;70.04
77333;BME280;66408;51.326;12.070;2023-03-21T06:52:09;100798.31;;;9.31;69.83
77333;BME280;66408;51.326;12.070;2023-03-21T06:54:36;100797.22;;;9.37;69.92
77333;BME280;66408;51.326;12.070;2023-03-21T06:57:02;100800.41;;;9.44;69.84
77333;BME280;66408;51.326;12.070;2023-03-21T06:59:29;100796.56;;;9.50;69.65
77333;BME280;66408;51.326;12.070;2023-03-21T07:01:56;100802.81;;;9.46;70.10
77333;BME280;66408;51.326;12.070;2023-03-21T07:04:22;100794.97;;;9.44;69.75
77333;BME280;66408;51.326;12.070;2023-03-21T07:06:49;100797.13;;;9.47;69.58
77333;BME280;66408;51.326;12.070;2023-03-21T07:09:15;100803.34;;;9.48;69.85
77333;BME280;66408;51.326;12.070;2023-03-21T07:11:43;100800.66;;;9.48;69.64
77333;BME280;66408;51.326;12.070;2023-03-21T07:14:10;100796.28;;;9.52;69.69
77333;BME280;66408;51.326;12.070;2023-03-21T07:16:36;100791.31;;;9.59;69.18
77333;BME280;66408;51.326;12.070;2023-03-21T07:19:03;100794.69;;;9.75;68.91
77333;BME280;66408;51.326;12.070;2023-03-21T07:21:29;100790.78;;;9.86;68.79
77333;BME280;66408;51.326;12.070;2023-03-21T07:23:56;100784.47;;;9.90;68.86
77333;BME280;66408;51.326;12.070;2023-03-21T07:26:23;100790.16;;;9.94;68.44
77333;BME280;66408;51.326;12.070;2023-03-21T07:28:49;100793.66;;;9.94;68.11
77333;BME280;66408;51.326;12.070;2023-03-21T07:31:16;100786.63;;;9.93;68.02
77333;BME280;66408;51.326;12.070;2023-03-21T07:33:43;100780.25;;;10.03;68.00
77333;BME280;66408;51.326;12.070;2023-03-21T07:36:11;100777.81;;;10.01;67.84
77333;BME280;66408;51.326;12.070;2023-03-21T07:38:42;100786.22;;;10.05;67.61
77333;BME280;66408;51.326;12.070;2023-03-21T07:41:09;100784.03;;;10.07;67.84
77333;BME280;66408;51.326;12.070;2023-03-21T07:43:36;100783.47;;;10.10;67.31
77333;BME280;66408;51.326;12.070;2023-03-21T07:46:04;100785.78;;;10.22;67.85
77333;BME280;66408;51.326;12.070;2023-03-21T07:48:31;100782.38;;;10.35;67.26
77333;BME280;66408;51.326;12.070;2023-03-21T07:50:58;100790.16;;;10.41;66.74
77333;BME280;66408;51.326;12.070;2023-03-21T07:53:25;100781.81;;;10.57;66.38
77333;BME280;66408;51.326;12.070;2023-03-21T07:55:53;100781.75;;;10.62;66.09
77333;BME280;66408;51.326;12.070;2023-03-21T07:58:23;100783.38;;;10.63;66.25
77333;BME280;66408;51.326;12.070;2023-03-21T08:00:52;100772.50;;;10.82;66.38
77333;BME280;66408;51.326;12.070;2023-03-21T08:03:18;100778.72;;;11.01;65.73
77333;BME280;66408;51.326;12.070;2023-03-21T08:05:45;100774.03;;;11.06;64.68
77333;BME280;66408;51.326;12.070;2023-03-21T08:08:12;100780.41;;;11.15;63.79
77333;BME280;66408;51.326;12.070;2023-03-21T08:10:41;100776.59;;;11.16;64.05
77333;BME280;66408;51.326;12.070;2023-03-21T08:13:09;100779.19;;;11.08;63.49
77333;BME280;66408;51.326;12.070;2023-03-21T08:15:35;100784.97;;;11.01;63.63
77333;BME280;66408;51.326;12.070;2023-03-21T08:18:03;100775.81;;;10.97;63.61
77333;BME280;66408;51.326;12.070;2023-03-21T08:20:29;100777.56;;;11.07;64.49
77333;BME280;66408;51.326;12.070;2023-03-21T08:22:56;100784.53;;;11.13;63.81
77333;BME280;66408;51.326;12.070;2023-03-21T08:25:23;100784.38;;;11.23;63.00
77333;BME280;66408;51.326;12.070;2023-03-21T08:27:50;100786.75;;;11.43;63.15
77333;BME280;66408;51.326;12.070;2023-03-21T08:30:20;100789.81;;;11.56;62.08
77333;BME280;66408;51.326;12.070;2023-03-21T08:32:47;100783.22;;;11.75;62.33
77333;BME280;66408;51.326;12.070;2023-03-21T08:35:16;100779.81;;;11.83;61.75
77333;BME280;66408;51.326;12.070;2023-03-21T08:37:44;100782.28;;;11.99;60.23
77333;BME280;66408;51.326;12.070;2023-03-21T08:40:13;100788.22;;;12.01;60.77
77333;BME280;66408;51.326;12.070;2023-03-21T08:42:42;100787.81;;;12.07;60.06
77333;BME280;66408;51.326;12.070;2023-03-21T08:45:10;100791.88;;;12.23;60.00
77333;BME280;66408;51.326;12.070;2023-03-21T08:47:37;100787.81;;;12.35;59.21
77333;BME280;66408;51.326;12.070;2023-03-21T08:50:06;100778.81;;;12.48;58.85
77333;BME280;66408;51.326;12.070;2023-03-21T08:52:33;100774.81;;;12.81;58.77
77333;BME280;66408;51.326;12.070;2023-03-21T08:55:00;100775.41;;;13.14;58.00
77333;BME280;66408;51.326;12.070;2023-03-21T08:57:28;100773.41;;;13.51;56.84
77333;BME280;66408;51.326;12.070;2023-03-21T08:59:54;100763.22;;;13.96;56.86
77333;BME280;66408;51.326;12.070;2023-03-21T09:02:21;100770.56;;;14.26;55.41
77333;BME280;66408;51.326;12.070;2023-03-21T09:04:48;100775.56;;;14.33;54.38
77333;BME280;66408;51.326;12.070;2023-03-21T09:07:14;100761.31;;;14.05;54.64
77333;BME280;66408;51.326;12.070;2023-03-21T09:09:42;100765.88;;;13.79;54.92
77333;BME280;66408;51.326;12.070;2023-03-21T09:12:11;100762.28;;;13.70;55.22
77333;BME280;66408;51.326;12.070;2023-03-21T09:14:37;100767.88;;;13.64;55.70
77333;BME280;66408;51.326;12.070;2023-03-21T09:17:04;100763.25;;;14.05;55.32
77333;BME280;66408;51.326;12.070;2023-03-21T09:19:31;100761.19;;;14.67;53.73
77333;BME280;66408;51.326;12.070;2023-03-21T09:21:58;100757.63;;;15.09;52.46
77333;BME280;66408;51.326;12.070;2023-03-21T09:24:24;100760.03;;;15.37;52.78
77333;BME280;66408;51.326;12.070;2023-03-21T09:26:51;100757.63;;;15.27;51.71
77333;BME280;66408;51.326;12.070;2023-03-21T09:29:18;100752.28;;;15.39;53.25
77333;BME280;66408;51.326;12.070;2023-03-21T09:31:46;100744.06;;;15.39;50.68
77333;BME280;66408;51.326;12.070;2023-03-21T09:34:13;100750.50;;;15.60;51.79
77333;BME280;66408;51.326;12.070;2023-03-21T09:36:41;100748.47;;;15.87;51.32
77333;BME280;66408;51.326;12.070;2023-03-21T09:39:10;100738.81;;;15.80;50.60
77333;BME280;66408;51.326;12.070;2023-03-21T09:44:41;100739.16;;;15.79;50.25
77333;BME280;66408;51.326;12.070;2023-03-21T09:47:20;100735.41;;;15.84;50.32
77333;BME280;66408;51.326;12.070;2023-03-21T09:50:17;100747.31;;;16.26;49.23
77333;BME280;66408;51.326;12.070;2023-03-21T09:55:24;100734.03;;;15.60;49.92
77333;BME280;66408;51.326;12.070;2023-03-21T10:00:38;100729.97;;;15.75;50.46
77333;BME280;66408;51.326;12.070;2023-03-21T10:03:29;100727.91;;;16.01;50.50
77333;BME280;66408;51.326;12.070;2023-03-21T10:06:03;100725.88;;;15.90;49.11
77333;BME280;66408;51.326;12.070;2023-03-21T10:08:36;100727.00;;;16.47;49.27
77333;BME280;66408;51.326;12.070;2023-03-21T10:11:18;100722.63;;;16.76;48.92
77333;BME280;66408;51.326;12.070;2023-03-21T10:14:10;100720.53;;;16.73;47.84
77333;BME280;66408;51.326;12.070;2023-03-21T10:16:43;100716.06;;;17.22;46.75
77333;BME280;66408;51.326;12.070;2023-03-21T10:19:15;100703.59;;;17.94;44.98
77333;BME280;66408;51.326;12.070;2023-03-21T10:21:45;100714.50;;;18.15;43.70
77333;BME280;66408;51.326;12.070;2023-03-21T10:24:27;100707.28;;;16.75;46.55
77333;BME280;66408;51.326;12.070;2023-03-21T10:26:54;100707.59;;;16.32;48.64
77333;BME280;66408;51.326;12.070;2023-03-21T10:29:30;100706.34;;;16.71;48.44
77333;BME280;66408;51.326;12.070;2023-03-21T10:31:58;100704.19;;;17.30;47.41
77333;BME280;66408;51.326;12.070;2023-03-21T10:34:41;100700.91;;;17.61;45.47
77333;BME280;66408;51.326;12.070;2023-03-21T10:37:10;100691.44;;;17.71;47.00
77333;BME280;66408;51.326;12.070;2023-03-21T10:39:41;100699.13;;;17.77;46.73
77333;BME280;66408;51.326;12.070;2023-03-21T10:42:21;100694.44;;;18.79;44.02
77333;BME280;66408;51.326;12.070;2023-03-21T10:44:52;100689.91;;;19.58;42.75
77333;BME280;66408;51.326;12.070;2023-03-21T10:47:27;100691.72;;;19.22;41.50
77333;BME280;66408;51.326;12.070;2023-03-21T10:50:10;100683.19;;;19.27;42.22
77333;BME280;66408;51.326;12.070;2023-03-21T10:52:43;100691.78;;;19.10;42.31
77333;BME280;66408;51.326;12.070;2023-03-21T10:55:24;100684.97;;;18.52;44.05
77333;BME280;66408;51.326;12.070;2023-03-21T10:57:54;100689.34;;;18.41;44.51
77333;BME280;66408;51.326;12.070;2023-03-21T11:00:28;100679.00;;;19.33;43.76
77333;BME280;66408;51.326;12.070;2023-03-21T11:02:56;100678.19;;;19.33;42.34
77333;BME280;66408;51.326;12.070;2023-03-21T11:05:38;100675.75;;;19.59;41.45
77333;BME280;66408;51.326;12.070;2023-03-21T11:08:11;100675.91;;;18.63;42.99
77333;BME280;66408;51.326;12.070;2023-03-21T11:13:24;100681.63;;;18.46;45.28
77333;BME280;66408;51.326;12.070;2023-03-21T11:15:55;100671.03;;;19.00;44.21
77333;BME280;66408;51.326;12.070;2023-03-21T11:18:26;100670.75;;;19.06;43.75
77333;BME280;66408;51.326;12.070;2023-03-21T11:21:01;100665.78;;;19.70;43.66
77333;BME280;66408;51.326;12.070;2023-03-21T11:23:31;100670.78;;;20.16;43.47
77333;BME280;66408;51.326;12.070;2023-03-21T11:26:00;100669.00;;;20.58;41.39
77333;BME280;66408;51.326;12.070;2023-03-21T11:28:35;100660.72;;;20.23;40.98
77333;BME280;66408;51.326;12.070;2023-03-21T11:31:04;100662.03;;;20.29;41.10
77333;BME280;66408;51.326;12.070;2023-03-21T11:33:38;100654.84;;;20.25;41.67
77333;BME280;66408;51.326;12.070;2023-03-21T11:41:39;100647.44;;;18.47;43.82
77333;BME280;66408;51.326;12.070;2023-03-21T11:44:24;100645.34;;;18.16;45.11
77333;BME280;66408;51.326;12.070;2023-03-21T11:46:53;100640.69;;;17.92;45.09
77333;BME280;66408;51.326;12.070;2023-03-21T11:49:20;100641.38;;;17.89;46.50
77333;BME280;66408;51.326;12.070;2023-03-21T11:52:22;100629.25;;;18.30;46.24
77333;BME280;66408;51.326;12.070;2023-03-21T12:00:39;100609.69;;;19.19;43.19
77333;BME280;66408;51.326;12.070;2023-03-21T12:03:33;100604.75;;;19.56;44.63
77333;BME280;66408;51.326;12.070;2023-03-21T12:06:20;100602.88;;;19.60;43.32
77333;BME280;66408;51.326;12.070;2023-03-21T12:11:56;100604.06;;;19.94;42.74
77333;BME280;66408;51.326;12.070;2023-03-21T12:24:54;100579.91;;;22.69;37.42
77333;BME280;66408;51.326;12.070;2023-03-21T12:27:40;100576.94;;;22.17;37.49
77333;BME280;66408;51.326;12.070;2023-03-21T12:32:58;100580.94;;;21.67;38.27
77333;BME280;66408;51.326;12.070;2023-03-21T12:35:39;100575.47;;;21.02;39.74
77333;BME280;66408;51.326;12.070;2023-03-21T12:38:17;100569.72;;;20.88;40.40
77333;BME280;66408;51.326;12.070;2023-03-21T12:49:35;100554.91;;;21.45;39.67
77333;BME280;66408;51.326;12.070;2023-03-21T12:52:09;100550.66;;;21.29;39.78
77333;BME280;66408;51.326;12.070;2023-03-21T12:54:38;100555.03;;;21.07;39.49
77333;BME280;66408;51.326;12.070;2023-03-21T12:57:39;100548.44;;;20.69;40.70
77333;BME280;66408;51.326;12.070;2023-03-21T13:00:24;100552.97;;;20.39;41.19
77333;BME280;66408;51.326;12.070;2023-03-21T13:03:02;100550.53;;;20.18;42.95
77333;BME280;66408;51.326;12.070;2023-03-21T13:05:39;100542.38;;;19.87;42.47
77333;BME280;66408;51.326;12.070;2023-03-21T13:08:16;100549.75;;;19.48;43.69
77333;BME280;66408;51.326;12.070;2023-03-21T13:10:46;100536.00;;;19.67;44.57
77333;BME280;66408;51.326;12.070;2023-03-21T13:24:25;100506.91;;;19.03;43.16
77333;BME280;66408;51.326;12.070;2023-03-21T13:29:59;100499.97;;;19.09;45.20
77333;BME280;66408;51.326;12.070;2023-03-21T13:32:30;100501.66;;;19.14;45.64
77333;BME280;66408;51.326;12.070;2023-03-21T13:37:39;100500.66;;;19.06;44.75
77333;BME280;66408;51.326;12.070;2023-03-21T13:40:20;100492.84;;;18.92;44.83
77333;BME280;66408;51.326;12.070;2023-03-21T13:42:54;100495.13;;;18.59;45.51
77333;BME280;66408;51.326;12.070;2023-03-21T13:48:31;100490.78;;;18.30;46.29
77333;BME280;66408;51.326;12.070;2023-03-21T13:51:20;100489.03;;;18.10;47.50
77333;BME280;66408;51.326;12.070;2023-03-21T14:04:41;100472.13;;;17.95;48.96
77333;BME280;66408;51.326;12.070;2023-03-21T14:07:31;100476.59;;;18.00;47.97
77333;BME280;66408;51.326;12.070;2023-03-21T14:10:02;100465.75;;;17.91;47.68
77333;BME280;66408;51.326;12.070;2023-03-21T14:12:41;100470.34;;;17.87;49.21
77333;BME280;66408;51.326;12.070;2023-03-21T14:15:48;100464.19;;;17.78;48.58
77333;BME280;66408;51.326;12.070;2023-03-21T14:18:23;100462.66;;;17.81;49.20
77333;BME280;66408;51.326;12.070;2023-03-21T14:21:17;100463.88;;;17.55;48.25
77333;BME280;66408;51.326;12.070;2023-03-21T14:24:11;100459.53;;;17.42;48.60
77333;BME280;66408;51.326;12.070;2023-03-21T14:26:44;100445.81;;;17.30;48.96
77333;BME280;66408;51.326;12.070;2023-03-21T14:29:32;100447.75;;;17.30;49.98
77333;BME280;66408;51.326;12.070;2023-03-21T14:32:00;100442.34;;;17.33;49.72
77333;BME280;66408;51.326;12.070;2023-03-21T14:34:28;100446.13;;;17.41;49.89
77333;BME280;66408;51.326;12.070;2023-03-21T14:36:56;100444.88;;;17.38;49.35
77333;BME280;66408;51.326;12.070;2023-03-21T14:39:31;100437.19;;;17.32;49.14
77333;BME280;66408;51.326;12.070;2023-03-21T14:42:05;100441.00;;;17.27;49.35
77333;BME280;66408;51.326;12.070;2023-03-21T14:44:39;100436.41;;;17.31;50.21
77333;BME280;66408;51.326;12.070;2023-03-21T14:47:21;100428.34;;;17.50;50.27
77333;BME280;66408;51.326;12.070;2023-03-21T14:49:49;100431.06;;;17.63;48.84
77333;BME280;66408;51.326;12.070;2023-03-21T14:54:48;100424.94;;;17.81;49.16
77333;BME280;66408;51.326;12.070;2023-03-21T14:57:33;100424.06;;;17.77;47.98
77333;BME280;66408;51.326;12.070;2023-03-21T15:00:05;100428.00;;;17.64;48.00